Time;durP1;ratioP1;P1;durP2;ratioP2;P2;SDS_P1;SDS_P2;PMS_P1;PMS_P2;Temp;Humidity;BMP_temperature;BMP_pressure;BME280_temperature;BME280_humidity;BME280_pressure;Samples;Min_cycle;Max_cycle;Signal;HPM_P1;HPM_P2
2020/12/12 00:01:47;;;;;;;;;14.00;13.00;;;;;1.22;86.95;100603.72;3725205;38;20508;-64
2020/12/12 00:04:13;;;;;;;;;38.50;35.50;;;;;1.22;86.72;100614.38;3725701;38;20590;-64
2020/12/12 00:06:40;;;;;;;;;22.00;19.50;;;;;1.26;87.25;100605.16;3725623;37;20548;-65
2020/12/12 00:09:07;;;;;;;;;22.00;19.00;;;;;1.33;87.13;100604.56;3727206;38;20583;-65
2020/12/12 00:11:35;;;;;;;;;16.50;13.50;;;;;1.23;86.68;100578.75;3725990;37;20523;-63
2020/12/12 00:14:01;;;;;;;;;24.00;20.25;;;;;1.41;86.73;100601.28;3725598;38;20548;-63
2020/12/12 00:16:32;;;;;;;;;19.00;17.00;;;;;1.40;86.54;100602.25;3725767;37;20511;-64
2020/12/12 00:18:58;;;;;;;;;26.25;22.00;;;;;1.34;86.63;100608.06;3725117;38;20533;-65
2020/12/12 00:21:25;;;;;;;;;17.50;15.25;;;;;1.15;86.61;100576.69;3725674;38;20503;-64
2020/12/12 00:23:51;;;;;;;;;18.00;16.00;;;;;1.38;86.93;100603.34;3725591;37;20506;-65
2020/12/12 00:26:21;;;;;;;;;14.50;10.75;;;;;1.33;86.37;100607.22;3725156;38;20499;-63
2020/12/12 00:28:49;;;;;;;;;14.00;11.00;;;;;1.27;86.79;100601.53;3725150;38;20480;-64
2020/12/12 00:31:17;;;;;;;;;10.50;10.50;;;;;1.20;86.53;100605.66;3725600;37;20505;-63
2020/12/12 00:33:44;;;;;;;;;15.00;14.50;;;;;1.24;87.20;100599.94;3725230;37;20498;-65
2020/12/12 00:36:15;;;;;;;;;18.25;15.00;;;;;1.20;86.59;100590.50;3725601;38;20498;-64
2020/12/12 00:38:41;;;;;;;;;15.00;12.50;;;;;1.18;86.45;100596.94;3725047;37;20499;-62
2020/12/12 00:41:08;;;;;;;;;16.00;13.50;;;;;1.20;87.14;100601.16;3725577;37;20479;-65
2020/12/12 00:43:34;;;;;;;;;10.50;9.50;;;;;1.22;86.73;100596.56;3725597;37;20486;-65
2020/12/12 00:46:01;;;;;;;;;9.75;9.75;;;;;1.23;86.61;100600.06;3725535;37;20462;-67
2020/12/12 00:48:28;;;;;;;;;13.50;11.25;;;;;1.23;86.54;100600.06;3725563;37;20443;-66
2020/12/12 00:50:54;;;;;;;;;12.50;10.00;;;;;1.31;86.94;100597.66;3725603;37;20570;-64
2020/12/12 00:53:20;;;;;;;;;8.50;7.75;;;;;1.32;86.80;100596.66;3725612;38;20467;-65
2020/12/12 00:55:49;;;;;;;;;15.25;12.00;;;;;1.24;86.67;100588.44;3725576;37;20454;-65
2020/12/12 00:58:16;;;;;;;;;15.50;13.75;;;;;1.13;86.39;100583.97;3725030;37;20469;-66
2020/12/12 01:00:44;;;;;;;;;13.75;11.25;;;;;1.17;86.98;100589.91;3724940;37;20447;-65
2020/12/12 01:03:12;;;;;;;;;13.75;11.25;;;;;1.15;87.06;100581.19;3725026;37;20455;-66
2020/12/12 01:05:38;;;;;;;;;18.25;13.00;;;;;1.19;87.20;100583.47;3725039;37;20453;-65
2020/12/12 01:08:04;;;;;;;;;9.75;7.00;;;;;1.19;86.93;100585.28;3725737;37;20444;-65
2020/12/12 01:10:30;;;;;;;;;9.50;9.00;;;;;1.12;86.89;100584.94;3725633;38;20424;-65
2020/12/12 01:12:57;;;;;;;;;10.75;7.50;;;;;1.12;86.76;100578.75;3725663;37;20416;-64
2020/12/12 01:15:23;;;;;;;;;7.00;7.00;;;;;1.15;87.12;100581.19;3725146;38;20470;-64
2020/12/12 01:17:49;;;;;;;;;7.75;6.00;;;;;1.13;87.01;100578.63;3725450;37;20491;-65
2020/12/12 01:20:19;;;;;;;;;10.75;9.50;;;;;1.25;87.36;100582.13;3725554;38;20419;-64
2020/12/12 01:22:45;;;;;;;;;11.50;11.50;;;;;1.31;87.00;100585.16;3725318;37;20441;-65
2020/12/12 01:25:12;;;;;;;;;10.50;10.00;;;;;1.30;86.72;100577.28;3725285;38;20392;-62
2020/12/12 01:27:38;;;;;;;;;10.00;9.25;;;;;1.21;86.92;100578.03;3725530;38;20434;-65
2020/12/12 01:30:05;;;;;;;;;11.00;8.00;;;;;1.16;86.99;100575.72;3725374;38;20419;-64
2020/12/12 01:32:31;;;;;;;;;10.25;9.00;;;;;1.19;86.84;100578.16;3725561;38;20374;-65
2020/12/12 01:34:57;;;;;;;;;7.00;6.75;;;;;1.15;86.87;100573.19;3725666;37;20360;-65
2020/12/12 01:37:24;;;;;;;;;8.50;7.25;;;;;1.21;86.95;100575.34;3725468;38;20370;-64
2020/12/12 01:39:54;;;;;;;;;10.75;9.00;;;;;1.01;86.80;100536.16;3725286;38;20360;-64
2020/12/12 01:42:20;;;;;;;;;9.00;6.75;;;;;0.89;86.83;100514.00;3725695;37;20361;-64
2020/12/12 01:44:46;;;;;;;;;12.50;9.50;;;;;1.20;87.13;100560.34;3725588;38;20381;-65
2020/12/12 01:47:13;;;;;;;;;8.50;6.75;;;;;1.19;87.13;100551.50;3725799;37;20370;-65
2020/12/12 01:49:40;;;;;;;;;11.00;7.00;;;;;1.14;86.78;100551.00;3725170;38;20349;-65
2020/12/12 01:52:07;;;;;;;;;10.00;9.00;;;;;1.09;87.22;100544.34;3725268;37;20359;-65
2020/12/12 01:54:34;;;;;;;;;11.00;8.25;;;;;0.94;87.27;100531.31;3725729;38;20367;-64
2020/12/12 01:57:03;;;;;;;;;9.00;7.00;;;;;1.16;86.92;100551.72;3725582;38;20343;-63
2020/12/12 01:59:33;;;;;;;;;9.25;9.00;;;;;1.17;86.99;100537.44;3725523;37;20350;-64
2020/12/12 02:02:02;;;;;;;;;6.00;5.00;;;;;1.16;87.00;100538.41;3725351;37;20387;-64
2020/12/12 02:04:30;;;;;;;;;11.75;8.75;;;;;1.15;86.97;100538.53;3725751;38;20315;-65
2020/12/12 02:06:57;;;;;;;;;9.25;6.25;;;;;1.13;87.13;100545.81;3726118;38;20338;-65
2020/12/12 02:09:24;;;;;;;;;9.00;7.00;;;;;1.15;87.45;100535.87;3725424;37;20333;-65
2020/12/12 02:11:54;;;;;;;;;12.25;10.75;;;;;1.17;87.35;100545.44;3725858;37;20326;-65
2020/12/12 02:14:21;;;;;;;;;11.00;8.25;;;;;1.19;87.40;100542.66;3725495;38;20578;-65
2020/12/12 02:16:53;;;;;;;;;14.00;11.25;;;;;1.23;87.12;100539.59;3725161;38;20347;-64
2020/12/12 02:19:20;;;;;;;;;11.25;8.50;;;;;1.23;87.54;100541.44;3726310;38;20354;-63
2020/12/12 02:22:06;;;;;;;;;10.00;8.50;;;;;1.29;87.46;100547.09;3728115;37;20330;-65
2020/12/12 02:24:33;;;;;;;;;12.50;10.75;;;;;1.31;87.49;100544.31;3726661;37;20325;-63
2020/12/12 02:27:06;;;;;;;;;12.00;10.00;;;;;1.35;87.61;100544.91;3726020;38;20331;-66
2020/12/12 02:29:42;;;;;;;;;9.00;7.25;;;;;1.29;87.16;100533.78;3726838;38;20330;-64
2020/12/12 02:32:09;;;;;;;;;11.00;10.75;;;;;1.31;87.22;100547.00;3727983;37;20326;-64
2020/12/12 02:34:35;;;;;;;;;9.25;9.25;;;;;1.37;87.32;100537.63;3725943;37;20315;-64
2020/12/12 02:37:02;;;;;;;;;8.50;6.50;;;;;1.35;87.17;100540.44;3725122;37;20317;-65
2020/12/12 02:39:34;;;;;;;;;15.25;11.75;;;;;1.32;87.44;100540.69;3725293;37;20280;-64
2020/12/12 02:42:00;;;;;;;;;14.25;10.75;;;;;1.31;87.35;100537.16;3725304;38;20315;-63
2020/12/12 02:44:27;;;;;;;;;11.00;10.25;;;;;1.30;87.14;100532.81;3725633;37;20289;-65
2020/12/12 02:46:53;;;;;;;;;9.75;9.75;;;;;1.27;87.23;100532.22;3725914;38;20318;-65
2020/12/12 02:49:20;;;;;;;;;14.00;10.50;;;;;1.24;87.04;100529.78;3725983;38;20302;-65
2020/12/12 02:51:46;;;;;;;;;12.25;9.50;;;;;1.21;87.18;100530.88;3729960;38;20290;-65
2020/12/12 02:54:13;;;;;;;;;11.50;10.00;;;;;1.21;87.15;100524.72;3736637;37;20231;-65
2020/12/12 02:56:40;;;;;;;;;12.25;10.75;;;;;1.25;87.28;100526.16;3738753;38;20314;-65
2020/12/12 02:59:07;;;;;;;;;11.50;9.75;;;;;1.23;87.31;100525.44;3737573;37;20286;-65
2020/12/12 03:01:33;;;;;;;;;12.50;9.75;;;;;1.28;87.59;100523.25;3735664;37;20288;-64
2020/12/12 03:04:01;;;;;;;;;6.75;6.50;;;;;1.32;87.46;100522.88;3735050;38;20269;-65
2020/12/12 03:06:27;;;;;;;;;14.25;11.00;;;;;1.30;87.25;100518.63;3737759;38;20229;-65
2020/12/12 03:08:54;;;;;;;;;10.25;7.75;;;;;1.35;87.53;100528.91;3733836;37;20273;-66
2020/12/12 03:11:21;;;;;;;;;10.75;9.50;;;;;1.31;86.84;100525.66;3731053;37;20265;-66
2020/12/12 03:13:47;;;;;;;;;7.75;7.00;;;;;1.32;87.01;100530.88;3725747;38;20284;-66
2020/12/12 03:16:14;;;;;;;;;13.00;11.50;;;;;1.35;87.17;100524.44;3725596;37;20228;-64
2020/12/12 03:18:41;;;;;;;;;11.25;11.00;;;;;1.43;87.18;100527.31;3725629;38;20299;-64
2020/12/12 03:21:07;;;;;;;;;17.00;13.50;;;;;1.41;86.93;100521.28;3725831;38;20277;-64
2020/12/12 03:23:35;;;;;;;;;15.75;13.50;;;;;1.07;86.86;100485.00;3725266;38;20250;-64
2020/12/12 03:26:04;;;;;;;;;12.75;11.00;;;;;1.26;86.89;100522.50;3725510;38;20265;-64
2020/12/12 03:28:30;;;;;;;;;11.00;11.00;;;;;1.28;87.63;100528.56;3725056;38;20255;-64
2020/12/12 03:30:56;;;;;;;;;11.50;10.00;;;;;1.34;87.81;100525.41;3725718;37;20245;-65
2020/12/12 03:33:23;;;;;;;;;13.25;11.00;;;;;1.35;87.32;100529.78;3725609;38;20232;-66
2020/12/12 03:35:49;;;;;;;;;14.75;13.50;;;;;1.39;87.53;100525.03;3725272;37;20267;-65
2020/12/12 03:38:15;;;;;;;;;10.25;10.25;;;;;1.41;87.29;100518.59;3725700;38;20251;-66
2020/12/12 03:40:41;;;;;;;;;14.50;14.00;;;;;1.42;87.32;100516.78;3725672;37;20244;-66
2020/12/12 03:43:07;;;;;;;;;14.75;10.75;;;;;1.31;87.15;100510.50;3725634;37;20250;-65
2020/12/12 03:45:34;;;;;;;;;11.00;10.00;;;;;1.23;87.22;100514.75;3725573;37;20234;-65
2020/12/12 03:48:01;;;;;;;;;15.50;15.00;;;;;1.26;87.19;100525.19;3725592;38;20244;-65
2020/12/12 03:50:27;;;;;;;;;15.75;10.75;;;;;1.26;87.29;100512.69;3725274;37;20243;-66
2020/12/12 03:53:01;;;;;;;;;16.00;14.00;;;;;1.26;87.72;100510.03;3725579;38;20223;-66
2020/12/12 03:55:27;;;;;;;;;14.00;11.00;;;;;1.30;87.36;100511.47;3725243;38;20224;-65
2020/12/12 03:57:55;;;;;;;;;18.00;14.50;;;;;1.32;87.40;100508.69;3725809;37;20209;-64
2020/12/12 04:00:22;;;;;;;;;15.50;14.25;;;;;1.33;87.33;100513.91;3725611;37;20298;-64
2020/12/12 04:02:49;;;;;;;;;13.00;11.00;;;;;1.27;87.26;100505.56;3725274;37;20251;-65
2020/12/12 04:05:26;;;;;;;;;13.00;9.50;;;;;1.21;87.16;100509.56;3725579;37;20213;-64
2020/12/12 04:07:52;;;;;;;;;16.50;13.25;;;;;1.28;87.72;100504.56;3725505;38;20190;-66
2020/12/12 04:10:19;;;;;;;;;18.75;14.00;;;;;1.37;87.76;100517.16;3725477;37;20217;-67
2020/12/12 04:12:46;;;;;;;;;13.75;11.00;;;;;1.40;87.93;100519.56;3725572;37;20212;-66
2020/12/12 04:15:13;;;;;;;;;15.75;13.50;;;;;1.43;87.66;100522.00;3725251;37;20199;-65
2020/12/12 04:17:40;;;;;;;;;10.75;10.50;;;;;1.45;87.89;100517.38;3725227;37;20203;-64
2020/12/12 04:20:10;;;;;;;;;15.50;12.50;;;;;1.49;88.15;100512.66;3725698;37;20173;-64
2020/12/12 04:22:37;;;;;;;;;14.00;10.00;;;;;1.37;87.15;100503.81;3725173;38;20168;-64
2020/12/12 04:25:04;;;;;;;;;18.75;15.50;;;;;1.30;87.51;100505.31;3725245;38;20195;-65
2020/12/12 04:27:30;;;;;;;;;14.00;11.25;;;;;1.25;87.49;100505.69;3724803;37;20198;-64
2020/12/12 04:29:57;;;;;;;;;14.00;11.00;;;;;1.21;87.56;100500.72;3724919;38;20193;-64
2020/12/12 04:32:24;;;;;;;;;14.25;10.75;;;;;1.26;87.47;100499.38;3725338;37;20162;-65
2020/12/12 04:34:54;;;;;;;;;14.50;12.50;;;;;1.27;87.55;100501.06;3725690;38;20186;-64
2020/12/12 04:37:21;;;;;;;;;18.25;14.75;;;;;1.24;87.49;100500.47;3725727;38;20172;-65
2020/12/12 04:39:49;;;;;;;;;16.50;14.00;;;;;1.26;87.60;100507.38;3725536;38;20196;-65
2020/12/12 04:42:16;;;;;;;;;13.00;13.00;;;;;1.26;87.73;100509.19;3725499;38;20171;-63
2020/12/12 04:44:43;;;;;;;;;15.50;12.50;;;;;1.26;87.45;100509.19;3725597;38;20168;-65
2020/12/12 04:47:12;;;;;;;;;14.25;12.00;;;;;1.20;87.68;100499.03;3725958;38;20272;-66
2020/12/12 04:49:40;;;;;;;;;19.75;18.00;;;;;1.26;87.79;100504.69;3726000;38;20159;-66
2020/12/12 04:52:07;;;;;;;;;15.00;14.00;;;;;1.09;87.75;100485.72;3725643;38;20151;-64
2020/12/12 04:54:37;;;;;;;;;15.00;15.00;;;;;1.27;87.41;100510.88;3725621;37;20173;-66
2020/12/12 04:57:07;;;;;;;;;20.50;17.25;;;;;1.22;87.58;100507.75;3725640;37;20213;-65
2020/12/12 04:59:37;;;;;;;;;18.25;15.75;;;;;1.23;87.71;100518.28;3725261;38;20150;-64
2020/12/12 05:02:04;;;;;;;;;17.00;11.00;;;;;1.18;87.78;100515.13;3725621;38;20218;-65
2020/12/12 05:04:30;;;;;;;;;15.75;13.50;;;;;1.17;87.78;100517.94;3725626;37;20158;-64
2020/12/12 05:06:56;;;;;;;;;23.50;15.75;;;;;1.17;87.72;100509.94;3725594;38;20152;-64
2020/12/12 05:09:28;;;;;;;;;22.75;20.25;;;;;1.15;87.76;100515.37;3725606;38;20142;-64
2020/12/12 05:11:56;;;;;;;;;21.25;18.00;;;;;1.16;87.73;100510.91;3725760;38;20146;-63
2020/12/12 05:14:22;;;;;;;;;19.75;14.75;;;;;1.16;87.96;100516.22;3725521;38;20194;-62
2020/12/12 05:16:48;;;;;;;;;17.25;13.25;;;;;1.15;87.92;100518.06;3725652;38;20122;-64
2020/12/12 05:19:14;;;;;;;;;15.50;13.75;;;;;1.19;87.96;100516.00;3725906;37;20115;-63
2020/12/12 05:21:51;;;;;;;;;17.75;13.75;;;;;1.19;88.03;100518.66;3725813;37;20132;-65
2020/12/12 05:24:17;;;;;;;;;18.75;17.25;;;;;1.27;88.00;100519.72;3725853;38;20106;-65
2020/12/12 05:26:46;;;;;;;;;15.75;14.50;;;;;1.28;87.90;100525.91;3726024;37;20094;-63
2020/12/12 05:29:13;;;;;;;;;13.75;12.50;;;;;1.21;87.62;100517.56;3725370;38;20107;-63
2020/12/12 05:31:42;;;;;;;;;11.00;9.25;;;;;1.19;88.03;100527.50;3725785;38;20101;-63
2020/12/12 05:34:11;;;;;;;;;20.00;17.00;;;;;1.17;87.80;100526.78;3725425;37;20132;-65
2020/12/12 05:36:40;;;;;;;;;17.00;13.75;;;;;1.19;88.14;100523.97;3725729;37;20099;-65
2020/12/12 05:39:10;;;;;;;;;17.00;13.75;;;;;1.19;87.78;100530.16;3725240;37;20123;-65
2020/12/12 05:41:38;;;;;;;;;15.50;13.00;;;;;1.22;87.79;100524.59;3725799;37;20073;-65
2020/12/12 05:44:05;;;;;;;;;14.75;11.75;;;;;1.24;87.70;100527.12;3725339;37;20181;-66
2020/12/12 05:46:38;;;;;;;;;14.50;13.25;;;;;1.18;88.01;100514.28;3725466;37;20146;-65
2020/12/12 05:49:04;;;;;;;;;14.00;13.00;;;;;1.23;87.96;100525.44;3725648;38;20103;-65
2020/12/12 05:51:32;;;;;;;;;18.75;15.75;;;;;1.26;88.05;100534.03;3725589;37;20064;-63
2020/12/12 05:54:01;;;;;;;;;15.00;13.50;;;;;1.29;88.14;100536.44;3726309;38;20073;-65
2020/12/12 05:56:30;;;;;;;;;16.50;15.00;;;;;1.33;88.11;100537.03;3725986;37;20064;-64
2020/12/12 05:58:57;;;;;;;;;21.50;18.50;;;;;1.39;88.09;100539.22;3726300;37;20071;-65
2020/12/12 06:01:27;;;;;;;;;15.75;14.50;;;;;1.42;88.01;100541.63;3726834;38;20067;-64
2020/12/12 06:04:05;;;;;;;;;22.50;19.00;;;;;1.42;87.86;100538.97;3727054;38;20061;-64
2020/12/12 06:06:34;;;;;;;;;44.75;37.50;;;;;1.38;87.76;100542.00;3726698;38;20071;-64
2020/12/12 06:09:09;;;;;;;;;23.25;13.75;;;;;1.31;87.80;100531.00;3725525;37;20131;-65
2020/12/12 06:11:40;;;;;;;;;17.75;15.50;;;;;1.30;87.79;100524.81;3727124;37;20065;-63
2020/12/12 06:14:07;;;;;;;;;22.75;18.25;;;;;1.31;87.98;100526.50;3726455;38;20048;-64
2020/12/12 06:16:37;;;;;;;;;22.50;18.75;;;;;1.43;88.06;100537.16;3725864;37;20125;-66
2020/12/12 06:19:08;;;;;;;;;20.75;18.75;;;;;1.13;87.72;100501.34;3726264;37;20077;-66
2020/12/12 06:21:36;;;;;;;;;13.25;11.00;;;;;1.30;87.71;100546.13;3728216;37;20058;-66
2020/12/12 06:24:06;;;;;;;;;13.00;13.00;;;;;1.28;88.01;100544.56;3725850;37;20041;-65
2020/12/12 06:27:09;;;;;;;;;23.50;19.50;;;;;1.35;88.04;100543.09;3725286;37;20008;-65
2020/12/12 06:29:44;;;;;;;;;18.00;14.25;;;;;1.31;88.02;100534.50;3725587;38;20029;-65
2020/12/12 06:32:21;;;;;;;;;20.75;17.50;;;;;1.35;87.87;100537.75;3726061;38;20024;-65
2020/12/12 06:34:51;;;;;;;;;17.25;14.75;;;;;1.36;87.92;100533.28;3725431;37;20057;-63
2020/12/12 06:37:32;;;;;;;;;17.00;13.75;;;;;1.44;88.00;100542.34;3725462;38;20020;-65
2020/12/12 06:39:59;;;;;;;;;16.75;13.50;;;;;1.43;87.77;100535.31;3725560;38;21022;-66
2020/12/12 06:42:42;;;;;;;;;15.75;13.50;;;;;1.45;87.98;100544.03;3725482;37;20031;-65
2020/12/12 06:45:34;;;;;;;;;25.00;19.75;;;;;1.45;87.84;100533.38;3725588;37;20029;-65
2020/12/12 06:48:01;;;;;;;;;19.75;14.75;;;;;1.47;88.17;100539.44;3725661;37;19996;-65
2020/12/12 06:50:38;;;;;;;;;22.00;17.75;;;;;1.54;87.94;100539.78;3725217;37;20016;-64
2020/12/12 06:53:36;;;;;;;;;24.00;18.50;;;;;1.55;87.83;100539.66;3725280;37;20019;-65
2020/12/12 06:56:15;;;;;;;;;40.25;27.75;;;;;1.54;87.93;100540.62;3725547;38;20008;-64
2020/12/12 06:58:46;;;;;;;;;20.75;16.00;;;;;1.40;87.84;100532.06;3725758;37;21024;-65
2020/12/12 07:01:35;;;;;;;;;27.50;24.25;;;;;1.47;87.82;100538.59;3726069;37;20981;-65
2020/12/12 07:04:06;;;;;;;;;16.50;14.25;;;;;1.42;88.02;100530.97;3725913;38;20997;-65
2020/12/12 07:06:34;;;;;;;;;46.75;39.75;;;;;1.38;87.88;100529.53;3725746;37;20993;-65
2020/12/12 07:09:06;;;;;;;;;24.50;23.75;;;;;1.48;88.16;100530.47;3725535;37;20057;-64
2020/12/12 07:11:32;;;;;;;;;35.00;28.50;;;;;1.57;87.98;100531.50;3725733;37;21011;-66
2020/12/12 07:14:03;;;;;;;;;20.75;19.50;;;;;1.57;87.90;100531.50;3725551;37;20994;-65
2020/12/12 07:16:30;;;;;;;;;22.25;20.75;;;;;1.59;87.97;100535.72;3726203;38;20973;-66
2020/12/12 07:18:56;;;;;;;;;25.25;22.50;;;;;1.60;88.03;100534.75;3725832;37;20950;-66
2020/12/12 07:21:23;;;;;;;;;26.75;22.00;;;;;1.64;88.13;100533.53;3728239;37;20958;-64
2020/12/12 07:23:50;;;;;;;;;34.25;25.75;;;;;1.73;88.10;100523.91;3725788;38;20988;-64
2020/12/12 07:26:23;;;;;;;;;23.00;20.00;;;;;1.69;87.93;100535.81;3725805;37;20985;-65
2020/12/12 07:28:49;;;;;;;;;19.00;15.75;;;;;1.60;88.12;100521.41;3725588;37;20935;-65
2020/12/12 07:31:16;;;;;;;;;19.00;18.50;;;;;1.72;87.97;100529.38;3725659;37;20941;-64
2020/12/12 07:33:48;;;;;;;;;23.50;18.75;;;;;1.75;87.95;100529.13;3725758;38;20963;-62
2020/12/12 07:36:15;;;;;;;;;26.75;24.00;;;;;1.78;88.15;100531.53;3725640;37;20947;-64
2020/12/12 07:38:44;;;;;;;;;29.50;27.75;;;;;1.88;88.19;100527.97;3725731;38;20956;-63
2020/12/12 07:41:11;;;;;;;;;20.00;18.00;;;;;1.81;88.04;100524.13;3725677;37;20964;-64
2020/12/12 07:43:53;;;;;;;;;19.50;16.25;;;;;1.81;88.05;100526.78;3725728;37;20899;-63
2020/12/12 07:46:23;;;;;;;;;20.25;18.00;;;;;1.78;88.00;100520.88;3725945;37;20938;-63
2020/12/12 07:49:00;;;;;;;;;18.25;15.25;;;;;1.85;88.33;100528.25;3726120;37;21019;-63
2020/12/12 07:51:26;;;;;;;;;20.00;18.50;;;;;1.92;87.92;100531.25;3726302;37;20929;-64
2020/12/12 07:53:53;;;;;;;;;27.25;22.25;;;;;1.89;88.05;100518.16;3726133;38;20903;-63
2020/12/12 07:56:25;;;;;;;;;36.00;29.75;;;;;2.03;88.17;100536.53;3726465;38;20914;-61
2020/12/12 07:59:06;;;;;;;;;39.75;35.00;;;;;2.08;88.33;100538.81;3726081;37;20946;-66
2020/12/12 08:01:33;;;;;;;;;20.50;18.50;;;;;2.09;87.92;100546.66;3726011;38;20920;-64
2020/12/12 08:04:02;;;;;;;;;21.25;19.25;;;;;2.10;88.12;100545.69;3725940;38;20915;-63
2020/12/12 08:06:28;;;;;;;;;21.25;20.25;;;;;2.10;88.10;100535.00;3725723;38;20969;-63
2020/12/12 08:08:56;;;;;;;;;23.50;17.50;;;;;2.10;88.56;100532.34;3725866;38;20891;-63
2020/12/12 08:11:23;;;;;;;;;27.25;22.50;;;;;2.25;88.22;100549.72;3726044;38;20925;-65
2020/12/12 08:13:49;;;;;;;;;21.50;20.50;;;;;2.27;87.95;100550.44;3725948;38;20910;-63
2020/12/12 08:16:26;;;;;;;;;25.75;23.75;;;;;2.30;87.72;100542.16;3726147;38;20884;-63
2020/12/12 08:19:13;;;;;;;;;36.75;30.25;;;;;2.22;87.81;100533.13;3726092;37;20892;-63
2020/12/12 08:21:45;;;;;;;;;22.50;17.50;;;;;2.33;87.86;100544.56;3725799;38;20919;-63
2020/12/12 08:24:12;;;;;;;;;18.00;16.25;;;;;2.15;87.51;100518.59;3725492;38;20897;-64
2020/12/12 08:26:38;;;;;;;;;15.75;13.75;;;;;2.17;87.34;100538.00;3725875;37;20881;-62
2020/12/12 08:29:05;;;;;;;;;21.50;15.25;;;;;2.16;87.70;100538.97;3725816;38;20877;-63
2020/12/12 08:31:40;;;;;;;;;17.75;15.75;;;;;2.80;88.81;100541.44;3725868;38;20877;-63
2020/12/12 08:34:07;;;;;;;;;15.00;12.25;;;;;2.85;88.23;100532.03;3725472;37;20883;-65
2020/12/12 08:36:35;;;;;;;;;12.75;12.25;;;;;2.76;87.65;100538.19;3725682;37;20838;-63
2020/12/12 08:39:06;;;;;;;;;15.50;12.75;;;;;3.04;88.21;100541.97;3725366;37;20856;-62
2020/12/12 08:41:37;;;;;;;;;12.50;9.00;;;;;3.03;86.74;100532.25;3725377;38;20871;-62
2020/12/12 08:44:03;;;;;;;;;17.00;15.50;;;;;2.84;87.00;100535.69;3725152;37;21189;-61
2020/12/12 08:46:31;;;;;;;;;13.75;12.25;;;;;2.63;86.61;100534.88;3725452;38;20876;-62
2020/12/12 08:49:00;;;;;;;;;19.00;16.25;;;;;2.50;86.95;100535.13;3725651;37;20821;-62
2020/12/12 08:51:33;;;;;;;;;24.75;16.00;;;;;2.55;87.86;100540.91;3725874;38;20834;-62
2020/12/12 08:54:00;;;;;;;;;17.50;16.50;;;;;2.59;87.55;100522.78;3725768;38;20848;-63
2020/12/12 08:56:30;;;;;;;;;22.00;20.25;;;;;2.65;87.13;100528.41;3725749;37;20836;-63
2020/12/12 08:59:06;;;;;;;;;19.00;11.00;;;;;2.62;87.54;100518.00;3725141;37;20831;-63
2020/12/12 09:01:39;;;;;;;;;15.75;14.50;;;;;2.50;87.26;100499.56;3725466;37;20797;-64
2020/12/12 09:04:23;;;;;;;;;29.25;27.75;;;;;2.61;87.20;100520.81;3726910;37;20823;-62
2020/12/12 09:06:56;;;;;;;;;16.00;13.00;;;;;2.66;87.41;100539.97;3725356;37;20804;-64
2020/12/12 09:09:30;;;;;;;;;16.50;14.25;;;;;2.67;87.27;100529.13;3725573;37;20791;-66
2020/12/12 09:12:15;;;;;;;;;13.25;11.75;;;;;2.72;87.42;100520.72;3725295;37;20783;-63
2020/12/12 09:14:47;;;;;;;;;19.50;14.25;;;;;2.60;87.34;100517.28;3725431;38;20814;-63
2020/12/12 09:17:16;;;;;;;;;14.00;12.75;;;;;2.55;86.78;100524.87;3725289;37;20818;-63
2020/12/12 09:19:42;;;;;;;;;15.75;15.25;;;;;2.47;87.25;100511.34;3725392;38;20796;-64
2020/12/12 09:22:10;;;;;;;;;15.00;13.50;;;;;2.45;86.82;100507.97;3725847;37;20817;-65
2020/12/12 09:24:37;;;;;;;;;18.00;16.50;;;;;2.46;86.87;100511.47;3725468;38;20844;-63
2020/12/12 09:27:04;;;;;;;;;17.50;16.75;;;;;2.46;87.03;100501.63;3725423;37;20819;-62
2020/12/12 09:29:32;;;;;;;;;20.00;15.00;;;;;2.44;86.87;100503.59;3725229;38;20809;-63
2020/12/12 09:32:00;;;;;;;;;14.75;11.25;;;;;2.09;86.55;100458.56;3725625;38;20794;-64
2020/12/12 09:34:27;;;;;;;;;12.25;11.50;;;;;2.37;87.12;100505.09;3725864;37;20786;-63
2020/12/12 09:36:54;;;;;;;;;13.75;11.75;;;;;2.29;86.75;100497.75;3725721;37;20786;-63
2020/12/12 09:39:21;;;;;;;;;14.25;12.75;;;;;2.21;86.51;100497.56;3725505;37;20756;-64
2020/12/12 09:41:48;;;;;;;;;14.75;13.75;;;;;2.22;86.69;100503.75;3725911;37;20780;-64
2020/12/12 09:44:15;;;;;;;;;22.75;21.00;;;;;2.30;87.11;100501.25;3725515;37;20791;-64
2020/12/12 09:46:41;;;;;;;;;13.25;13.00;;;;;2.28;86.83;100490.72;3725668;37;20769;-65
2020/12/12 09:49:08;;;;;;;;;11.75;10.25;;;;;2.37;87.38;100504.25;3725773;38;20771;-64
2020/12/12 09:51:35;;;;;;;;;11.75;10.75;;;;;2.48;86.93;100498.84;3725918;37;20747;-64
2020/12/12 09:54:01;;;;;;;;;15.25;12.00;;;;;2.51;86.97;100496.75;3725868;37;20731;-64
2020/12/12 09:56:28;;;;;;;;;14.75;12.25;;;;;2.42;86.61;100497.53;3725369;37;20779;-65
2020/12/12 09:58:54;;;;;;;;;16.50;16.00;;;;;2.51;87.40;100502.09;3726044;37;20772;-63
2020/12/12 10:01:20;;;;;;;;;20.00;16.00;;;;;2.60;86.88;100501.25;3727266;37;20764;-64
2020/12/12 10:03:50;;;;;;;;;18.25;17.25;;;;;2.53;87.24;100494.78;3725671;37;20734;-62
2020/12/12 10:06:16;;;;;;;;;15.75;14.00;;;;;2.50;86.61;100497.72;3725811;37;20762;-67
2020/12/12 10:08:42;;;;;;;;;17.50;16.75;;;;;2.38;86.98;100503.28;3726926;37;20742;-64
2020/12/12 10:11:09;;;;;;;;;21.50;19.00;;;;;2.47;87.23;100497.16;3727441;38;20736;-63
2020/12/12 10:13:36;;;;;;;;;16.50;13.50;;;;;2.38;86.55;100493.44;3725843;37;20731;-62
2020/12/12 10:16:03;;;;;;;;;11.50;11.50;;;;;2.35;86.89;100493.72;3725866;37;20708;-64
2020/12/12 10:18:36;;;;;;;;;21.50;18.75;;;;;2.32;87.16;100478.78;3725828;38;20709;-63
2020/12/12 10:21:02;;;;;;;;;15.00;12.25;;;;;2.37;86.57;100490.91;3725991;38;20706;-61
2020/12/12 10:23:29;;;;;;;;;14.75;11.75;;;;;2.30;87.14;100478.09;3726231;37;20746;-63
2020/12/12 10:25:56;;;;;;;;;23.50;20.00;;;;;2.36;87.16;100467.84;3725777;38;20735;-62
2020/12/12 10:28:22;;;;;;;;;16.75;15.00;;;;;2.27;86.96;100456.97;3725709;37;20733;-63
2020/12/12 10:30:48;;;;;;;;;20.75;18.75;;;;;2.39;86.86;100472.94;3725808;38;20717;-63
2020/12/12 10:33:21;;;;;;;;;17.00;15.00;;;;;2.33;87.18;100458.28;3725849;37;20735;-64
2020/12/12 10:35:47;;;;;;;;;11.50;10.25;;;;;2.43;87.04;100482.38;3725354;37;20762;-62
2020/12/12 10:38:14;;;;;;;;;23.25;21.25;;;;;2.43;87.10;100477.87;3725313;37;20660;-62
2020/12/12 10:40:46;;;;;;;;;15.75;13.25;;;;;2.51;87.17;100472.72;3725374;37;20707;-61
2020/12/12 10:43:13;;;;;;;;;24.75;19.50;;;;;2.55;86.95;100467.94;3725358;38;20717;-59
2020/12/12 10:45:41;;;;;;;;;14.75;12.00;;;;;2.57;86.92;100469.50;3725111;37;20719;-59
2020/12/12 10:48:08;;;;;;;;;14.25;13.75;;;;;2.68;87.29;100468.53;3725040;37;20655;-60
2020/12/12 10:50:35;;;;;;;;;22.25;19.25;;;;;2.75;87.38;100472.34;3724966;38;20695;-59
2020/12/12 10:53:03;;;;;;;;;22.25;20.75;;;;;2.82;87.08;100472.66;3725446;37;20695;-61
2020/12/12 10:55:29;;;;;;;;;15.25;13.50;;;;;2.83;87.34;100464.50;3725702;38;20667;-59
2020/12/12 10:57:56;;;;;;;;;19.00;16.75;;;;;2.76;86.81;100463.34;3725506;38;20657;-59
2020/12/12 11:00:25;;;;;;;;;15.75;12.75;;;;;2.82;86.48;100461.97;3725292;37;20689;-59
2020/12/12 11:02:54;;;;;;;;;13.75;13.75;;;;;2.72;86.87;100464.59;3725678;37;20627;-59
2020/12/12 11:05:21;;;;;;;;;15.00;11.75;;;;;2.76;86.77;100463.34;3725718;38;20649;-59
2020/12/12 11:07:48;;;;;;;;;11.75;11.75;;;;;2.74;86.75;100461.78;3725654;38;20630;-59
2020/12/12 11:10:14;;;;;;;;;20.75;18.50;;;;;2.74;86.56;100456.44;3725796;37;20637;-58
2020/12/12 11:12:40;;;;;;;;;13.50;13.50;;;;;2.76;87.04;100460.69;3725817;37;20637;-60
2020/12/12 11:15:08;;;;;;;;;24.75;21.00;;;;;2.76;86.67;100438.47;3725693;37;20649;-60
2020/12/12 11:17:34;;;;;;;;;17.00;16.25;;;;;2.84;86.67;100455.50;3725664;37;20641;-58
2020/12/12 11:20:00;;;;;;;;;13.50;12.25;;;;;2.88;86.84;100451.56;3725753;37;20630;-57
2020/12/12 11:22:26;;;;;;;;;11.50;11.50;;;;;2.83;86.51;100451.13;3725797;38;20643;-58
2020/12/12 11:24:53;;;;;;;;;12.50;11.00;;;;;2.78;86.02;100453.38;3725605;37;20635;-57
2020/12/12 11:27:19;;;;;;;;;12.00;11.25;;;;;2.82;86.61;100446.78;3725862;37;20604;-59